Flight Track Log - Related Links

Times and Time Zones

All times are in EDT time to prevent confusion due to time zone crossing. See the UAL252 flight status page for this flight to view local times or setup timezone preferences in your user account.

Time Position Orientation Groundspeed Altitude Reporting Facility
EDT Latitude Longitude Course Direction KTS MPH feet Rate Location/Type
Tue 01:24:19 PM 38.8333 -77.0333 275° West 141 162 1,100  Level Potomac TRACON
Tue 01:25:19 PM 38.8000 -77.0333 180° South 139 160 3,200 2,000 Climbing Potomac TRACON
Tue 01:26:19 PM 38.7667 -77.0667 218° Southwest 225 259 5,100 2,826 Climbing Potomac TRACON
Tue 01:27:00 PM 38.9333 -77.6253 270° West  Level FlightAware Approximate
Tue 01:27:20 PM 38.7833 -77.1500 284° West 281 323 8,900  Level Potomac TRACON
Tue 01:28:00 PM 38.9333 -77.7510 270° West  Level FlightAware Approximate
Tue 01:29:00 PM 38.9403 -77.8763 275° West  Level FlightAware Approximate
Tue 01:29:40 PM 38.8600 -77.4097 291° West 354 407 15,300  Level Washington Center
Tue 01:30:37 PM 38.8936 -77.5228 291° West 368 423 17,000 864 Climbing Washington Center
Tue 01:31:38 PM 38.9353 -77.6572 292° West 374 430 17,000 992 Level Washington Center
Tue 01:32:38 PM 38.9475 -77.7883 277° West 368 423 19,000 2,083 Climbing Washington Center
Tue 01:33:39 PM 38.9514 -77.9164 272° West 385 443 21,200 2,370 Climbing Washington Center
Tue 01:34:37 PM 38.9547 -78.0581 272° West 397 457 23,700 2,370 Climbing Washington Center
Tue 01:35:38 PM 38.9581 -78.1997 272° West 404 465 25,900 1,967 Climbing Washington Center
Tue 01:36:39 PM 38.9631 -78.3494 273° West 414 476 27,700 1,815 Climbing Washington Center
Tue 01:37:37 PM 38.9681 -78.4964 273° West 419 482 29,500 2,067 Climbing Washington Center
Tue 01:38:38 PM 38.9728 -78.6433 272° West 419 482 31,800 1,250 Climbing Washington Center
Tue 01:39:37 PM 38.9753 -78.7850 271° West 419 482 32,000 -750 Climbing Washington Center
Tue 01:40:38 PM 38.9819 -78.9269 274° West 408 470 30,300 -984 Descending Washington Center
Tue 01:41:39 PM 38.9842 -79.0686 271° West 403 464 30,000 -153 Descending Washington Center
Tue 01:42:36 PM 38.9881 -79.2131 272° West 403 464 30,000  Level Washington Center
Tue 01:43:37 PM 38.9919 -79.3575 272° West 408 470 30,000  Level Washington Center
Tue 01:44:38 PM 38.9936 -79.5017 271° West 408 470 30,000  Level Washington Center
Tue 01:45:39 PM 38.9986 -79.6703 272° West 419 482 30,000  Level Washington Center
Tue 01:46:39 PM 39.0019 -79.8147 272° West 424 488 30,000 -768 Level Washington Center
Tue 01:47:44 PM 39.0022 -79.9492 270° West 405 466 28,400 -945 Descending Indianapolis Center
Tue 01:48:46 PM 39.0042 -80.1031 271° West 411 473 28,000 -194 Descending Indianapolis Center
Tue 01:49:48 PM 39.0064 -80.2528 271° West 419 482 28,000  Level Indianapolis Center
Tue 01:50:49 PM 39.0264 -80.4253 279° West 413 475 28,000  Level Indianapolis Center
Tue 01:51:51 PM 39.0811 -80.5503 299° West 404 465 28,000  Level Indianapolis Center
Tue 01:52:53 PM 39.1353 -80.6742 299° West 400 460 28,000  Level Indianapolis Center
Tue 01:53:55 PM 39.1903 -80.7994 300° West 400 460 28,000  Level Indianapolis Center
Tue 01:54:56 PM 39.2447 -80.9242 299° West 401 461 28,000  Level Indianapolis Center
Tue 01:55:58 PM 39.2994 -81.0467 300° West 398 458 28,000  Level Indianapolis Center
Tue 01:57:00 PM 39.3525 -81.1700 299° West 396 456 28,000  Level Indianapolis Center
Tue 01:58:02 PM 39.4178 -81.3203 299° West 400 460 28,000  Level Indianapolis Center
Tue 01:59:04 PM 39.4714 -81.4439 299° West 398 458 28,000  Level Indianapolis Center
Tue 02:00:05 PM 39.5250 -81.5694 299° West 400 460 28,000  Level Indianapolis Center
Tue 02:01:07 PM 39.5786 -81.6975 299° West 404 465 28,000  Level Indianapolis Center
Tue 02:02:09 PM 39.6283 -81.8167 298° West 387 445 28,000  Level Indianapolis Center
Tue 02:03:11 PM 39.6778 -81.9350 299° West 377 434 28,000  Level Indianapolis Center
Tue 02:04:13 PM 39.7369 -82.0761 299° West 374 430 28,000  Level Indianapolis Center
Tue 02:05:15 PM 39.7872 -82.1942 299° West 374 430 28,000  Level Indianapolis Center
Tue 02:06:16 PM 39.8369 -82.3131 299° West 376 433 28,000  Level Indianapolis Center
Tue 02:07:18 PM 39.8864 -82.4353 298° West 381 438 28,000  Level Indianapolis Center
Tue 02:08:20 PM 39.9375 -82.5542 299° West 377 434 28,000  Level Indianapolis Center
Tue 02:09:22 PM 39.9936 -82.6922 298° West 381 438 28,000  Level Indianapolis Center
Tue 02:10:24 PM 40.0450 -82.8158 299° West 383 441 28,000  Level Indianapolis Center
Tue 02:11:26 PM 40.0956 -82.9406 298° West 383 441 28,000  Level Indianapolis Center
Tue 02:12:28 PM 40.1467 -83.0656 298° West 387 445 28,000  Level Indianapolis Center
Tue 02:13:29 PM 40.1981 -83.1911 298° West 388 447 28,000  Level Indianapolis Center
Tue 02:14:31 PM 40.2486 -83.3178 298° West 388 447 28,000  Level Indianapolis Center
Tue 02:15:33 PM 40.2997 -83.4447 298° West 389 448 28,000  Level Indianapolis Center
Tue 02:16:35 PM 40.3494 -83.5711 297° West 387 445 28,000  Level Indianapolis Center
Tue 02:17:37 PM 40.4094 -83.7183 298° West 388 447 28,000  Level Indianapolis Center
Tue 02:18:39 PM 40.4594 -83.8453 297° West 387 445 28,000  Level Indianapolis Center
Tue 02:20:42 PM 40.5544 -84.0886 297° West 383 441 28,000  Level Indianapolis Center
Tue 02:21:44 PM 40.6039 -84.2133 298° West 386 444 28,000  Level Indianapolis Center
Tue 02:22:46 PM 40.6625 -84.3625 297° West 386 444 28,000  Level Indianapolis Center
Tue 02:23:47 PM 40.7111 -84.4881 297° West 386 444 28,000  Level Indianapolis Center
Tue 02:24:49 PM 40.7578 -84.6122 296° West 382 440 28,000  Level Indianapolis Center
Tue 02:25:51 PM 40.8058 -84.7381 297° West 384 442 28,000 -48 Level Indianapolis Center
Tue 02:26:53 PM 40.8547 -84.8636 297° West 386 444 27,900 -1,306 Descending Indianapolis Center
Tue 02:27:55 PM 40.9022 -84.9883 297° West 384 442 25,300 -1,403 Descending Indianapolis Center
Tue 02:28:57 PM 40.9603 -85.1428 297° West 393 452 25,000 -146 Descending Indianapolis Center
Tue 02:29:58 PM 41.0306 -85.2669 307° West 420 483 25,000  Level Indianapolis Center
Tue 02:31:00 PM 41.1097 -85.3861 311° West 433 498 25,000  Level Indianapolis Center
Tue 02:32:02 PM 41.1692 -85.5219 300° West 434 499 25,000 -823 Level Indianapolis Center
Tue 02:33:04 PM 41.2236 -85.6614 297° West 428 493 23,300 -968 Descending Indianapolis Center
Tue 02:34:06 PM 41.2772 -85.8003 297° West 426 490 23,000 -145 Descending Indianapolis Center
Tue 02:35:08 PM 41.3403 -85.9631 297° West 421 484 23,000 -194 Level Indianapolis Center
Tue 02:36:10 PM 41.3894 -86.1028 295° West 419 482 22,600 -1,561 Descending Indianapolis Center
Tue 02:37:11 PM 41.4386 -86.2361 296° West 414 476 19,800 -2,829 Descending Indianapolis Center
Tue 02:38:13 PM 41.4886 -86.3631 298° West 405 466 16,800 -2,503 Descending Indianapolis Center
Tue 02:39:42 PM 41.5578 -86.5414 297° West 363 418 13,500 -1,907 Descending Chicago Center
Tue 02:40:44 PM 41.6028 -86.6564 298° West 353 406 12,000 -726 Descending Chicago Center
Tue 02:41:46 PM 41.6506 -86.7758 298° West 353 406 12,000  Level Chicago Center
Tue 02:42:49 PM 41.7431 -86.8056 347° North 345 397 12,000  Level Chicago Center
Tue 02:43:51 PM 41.8569 -86.8294 351° North 349 402 12,000 -726 Level Chicago Center
Tue 02:44:53 PM 41.9294 -86.9028 323° Northwest 334 384 10,500 -968 Descending Chicago Center
Tue 02:45:55 PM 41.9775 -87.0083 302° West 336 387 10,000 -194 Descending Chicago Center
Tue 02:46:57 PM 41.9806 -87.1286 272° West 331 381 10,100 -677 Climbing Chicago Center
Tue 02:47:59 PM 41.9822 -87.2303 271° West 293 337 8,600 -1,500 Descending Chicago Center
Tue 02:49:01 PM 41.9822 -87.3486 270° West 270 311 7,000 -774 Descending Chicago Center
Tue 02:50:03 PM 41.9831 -87.4322 271° West 238 274 7,000 -242 Level Chicago Center
Tue 02:51:05 PM 41.9833 -87.5036 270° West 199 229 6,500 -871 Descending Chicago Center
Tue 02:52:07 PM 41.9833 -87.5658 270° West 177 204 5,200 -1,016 Descending Chicago Center
Tue 02:53:09 PM 41.9833 -87.6286 270° West 170 196 4,400 -912 Descending Chicago Center
Tue 02:54:12 PM 41.9836 -87.7089 270° West 176 203 3,300 -1,008 Descending Chicago Center
Tue 02:55:14 PM 41.9836 -87.7742 270° West 177 204 2,300 -823 Descending Chicago Center
Tue 02:56:16 PM 41.9850 -87.8331 272° West 171 197 1,600 -683 Descending Chicago Center
Tue 02:57:17 PM 41.9833 -87.8833 267° West 120 138 900 -689 Descending Chicago TRACON

Login

Don't have an account? Register now (free) for customized features, flight alerts, and more!